Time;durP1;ratioP1;P1;durP2;ratioP2;P2;SDS_P1;SDS_P2;PMS_P1;PMS_P2;Temp;Humidity;BMP_temperature;BMP_pressure;BME280_temperature;BME280_humidity;BME280_pressure;Samples;Min_cycle;Max_cycle;Signal;HPM_P1;HPM_P2
2022/08/31 04:01:13;;;;;;;0.38;0.38;;;11.10;99.90;;;;;;5633086;23;20238;-75
2022/08/31 04:03:39;;;;;;;1.00;1.00;;;11.10;99.90;;;;;;4994188;28;20713;-74
2022/08/31 04:06:09;;;;;;;0.98;0.98;;;11.10;99.90;;;;;;4993626;28;20535;-74
2022/08/31 04:08:35;;;;;;;0.63;0.63;;;11.10;99.90;;;;;;4994003;28;20218;-74
2022/08/31 04:11:09;;;;;;;1.25;1.15;;;11.10;99.90;;;;;;4996564;28;20703;-74
2022/08/31 04:16:07;;;;;;;2.17;2.10;;;11.10;99.90;;;;;;4972785;28;20271;-72
2022/08/31 04:18:36;;;;;;;1.33;1.33;;;11.10;99.90;;;;;;4974267;28;20200;-72
2022/08/31 04:21:04;;;;;;;1.38;1.38;;;11.10;99.90;;;;;;4974447;28;20218;-72
2022/08/31 04:23:31;;;;;;;0.95;0.95;;;11.10;99.90;;;;;;4975760;28;20726;-72
2022/08/31 04:25:58;;;;;;;1.30;1.20;;;11.10;99.90;;;;;;4974446;28;20214;-72
2022/08/31 04:28:25;;;;;;;1.02;1.00;;;11.10;99.90;;;;;;4974939;28;20226;-72
2022/08/31 04:30:52;;;;;;;0.82;0.82;;;11.10;99.90;;;;;;4974186;28;20667;-72
2022/08/31 04:33:18;;;;;;;1.00;0.85;;;11.10;99.90;;;;;;4974111;28;20219;-72
2022/08/31 04:35:46;;;;;;;0.70;0.70;;;11.10;99.90;;;;;;4974234;28;20330;-72
2022/08/31 04:38:13;;;;;;;1.60;1.60;;;11.10;99.90;;;;;;4973862;28;20241;-72
2022/08/31 04:40:41;;;;;;;1.65;1.25;;;11.00;99.90;;;;;;4974017;28;20208;-72
2022/08/31 04:43:08;;;;;;;1.75;0.82;;;11.10;99.90;;;;;;4973652;28;20228;-72
2022/08/31 04:45:39;;;;;;;1.05;0.93;;;11.10;99.90;;;;;;4973971;28;20241;-72
2022/08/31 04:48:06;;;;;;;0.40;0.40;;;11.10;99.90;;;;;;4973697;28;20222;-72
2022/08/31 04:50:33;;;;;;;0.60;0.60;;;11.10;99.90;;;;;;4973318;28;20214;-72
2022/08/31 04:53:01;;;;;;;0.52;0.52;;;11.10;99.90;;;;;;4972273;28;20206;-72
2022/08/31 04:55:27;;;;;;;0.80;0.80;;;11.10;99.90;;;;;;4973281;28;20235;-72
2022/08/31 04:57:54;;;;;;;0.82;0.82;;;11.10;99.90;;;;;;4973702;28;20213;-72
2022/08/31 05:00:21;;;;;;;2.05;1.10;;;11.20;99.90;;;;;;4973307;28;20207;-72
2022/08/31 05:02:47;;;;;;;0.60;0.60;;;11.20;99.90;;;;;;4971628;28;20575;-72
2022/08/31 05:05:14;;;;;;;0.50;0.50;;;11.20;99.90;;;;;;4973412;28;20243;-72
2022/08/31 05:07:41;;;;;;;1.35;0.50;;;11.20;99.90;;;;;;4969805;28;20205;-72
2022/08/31 05:10:10;;;;;;;0.95;0.95;;;11.20;99.90;;;;;;4968283;28;20659;-72
2022/08/31 05:12:36;;;;;;;3.80;1.08;;;11.30;99.90;;;;;;4972940;28;20681;-72
2022/08/31 05:15:04;;;;;;;0.60;0.60;;;11.30;99.90;;;;;;4972853;28;20237;-72
2022/08/31 05:17:31;;;;;;;1.88;0.60;;;11.40;99.90;;;;;;4972934;28;20210;-72
2022/08/31 05:19:58;;;;;;;1.10;1.10;;;11.40;99.90;;;;;;4972928;28;20331;-72
2022/08/31 05:22:25;;;;;;;0.68;0.65;;;11.40;99.90;;;;;;4973319;28;20298;-72
2022/08/31 05:24:51;;;;;;;1.20;1.10;;;11.40;99.90;;;;;;4973064;28;20235;-72
2022/08/31 05:27:19;;;;;;;1.00;1.00;;;11.50;99.90;;;;;;4972955;28;20221;-72
2022/08/31 05:29:46;;;;;;;1.25;1.17;;;11.50;99.90;;;;;;4971440;28;20215;-72
2022/08/31 05:32:13;;;;;;;1.38;1.38;;;11.50;99.90;;;;;;4964788;28;20207;-72
2022/08/31 05:34:40;;;;;;;0.88;0.88;;;11.50;99.90;;;;;;4953384;28;20872;-72
2022/08/31 05:37:06;;;;;;;2.10;2.00;;;11.50;99.90;;;;;;4953282;28;20718;-69
2022/08/31 05:39:33;;;;;;;0.60;0.60;;;11.60;99.90;;;;;;4953825;28;20216;-69
2022/08/31 05:42:00;;;;;;;1.00;1.00;;;11.60;99.90;;;;;;4953378;28;20265;-69
2022/08/31 05:44:28;;;;;;;0.95;0.95;;;11.60;99.90;;;;;;4959821;28;20240;-72
2022/08/31 05:46:55;;;;;;;1.55;0.75;;;11.70;99.90;;;;;;4968388;28;20682;-72
2022/08/31 05:49:22;;;;;;;1.00;1.00;;;11.70;99.90;;;;;;4959171;28;20223;-72
2022/08/31 05:51:49;;;;;;;1.20;0.50;;;11.80;99.90;;;;;;4970790;28;20223;-72
2022/08/31 05:54:16;;;;;;;0.98;0.98;;;11.80;99.90;;;;;;4972384;28;20227;-72
2022/08/31 05:56:43;;;;;;;0.98;0.98;;;11.90;99.90;;;;;;4972158;28;20303;-72
2022/08/31 05:59:11;;;;;;;0.65;0.65;;;11.90;99.90;;;;;;4972660;28;20222;-72
2022/08/31 06:01:40;;;;;;;0.75;0.75;;;12.00;99.90;;;;;;4972353;28;20223;-72
2022/08/31 06:04:09;;;;;;;0.82;0.82;;;12.00;99.90;;;;;;4971570;28;20237;-72
2022/08/31 06:06:36;;;;;;;1.48;1.00;;;12.10;99.90;;;;;;4961829;28;20204;-72
2022/08/31 06:09:05;;;;;;;1.00;1.00;;;12.10;99.90;;;;;;4954163;28;20242;-72
2022/08/31 06:11:33;;;;;;;0.82;0.82;;;12.20;99.90;;;;;;4953491;28;20220;-73
2022/08/31 06:14:02;;;;;;;0.90;0.90;;;12.20;99.90;;;;;;4952701;28;20238;-72
2022/08/31 06:16:30;;;;;;;0.95;0.95;;;12.30;99.90;;;;;;4952968;28;20231;-72
2022/08/31 06:19:03;;;;;;;0.50;0.50;;;12.40;99.90;;;;;;4953061;28;20304;-72
2022/08/31 06:21:32;;;;;;;0.70;0.70;;;12.40;99.90;;;;;;4960655;28;20216;-72
2022/08/31 06:24:00;;;;;;;0.55;0.55;;;12.50;99.90;;;;;;4966343;28;20253;-72
2022/08/31 06:26:29;;;;;;;1.00;1.00;;;12.60;99.90;;;;;;4972167;28;20211;-72
2022/08/31 06:28:58;;;;;;;1.40;0.82;;;12.60;99.90;;;;;;4972121;28;20213;-72
2022/08/31 06:31:29;;;;;;;1.23;1.13;;;12.70;99.90;;;;;;4971681;28;20210;-72
2022/08/31 06:33:59;;;;;;;0.50;0.50;;;12.80;99.90;;;;;;4971781;28;20232;-72
2022/08/31 06:36:28;;;;;;;0.60;0.60;;;12.90;99.90;;;;;;4971374;28;20229;-72
2022/08/31 06:38:58;;;;;;;1.45;1.10;;;13.00;99.90;;;;;;4963068;28;20206;-72
2022/08/31 06:41:26;;;;;;;3.60;0.63;;;13.10;99.90;;;;;;4969465;28;20647;-72
2022/08/31 06:43:54;;;;;;;0.93;0.93;;;13.20;99.90;;;;;;4965742;28;20522;-72
2022/08/31 06:46:23;;;;;;;0.80;0.80;;;13.30;99.90;;;;;;4971258;28;20469;-72
2022/08/31 06:48:52;;;;;;;0.60;0.60;;;13.40;99.90;;;;;;4971680;28;20466;-72
2022/08/31 06:51:21;;;;;;;0.77;0.77;;;13.50;99.90;;;;;;4971775;28;20467;-72
2022/08/31 06:53:47;;;;;;;0.50;0.50;;;13.60;99.90;;;;;;4970741;28;20474;-72
2022/08/31 06:56:16;;;;;;;0.40;0.40;;;13.70;99.90;;;;;;4971880;28;20465;-72
2022/08/31 06:58:43;;;;;;;0.53;0.53;;;13.80;99.90;;;;;;4971987;28;20486;-71
2022/08/31 07:01:13;;;;;;;2.60;1.10;;;13.90;99.90;;;;;;4971420;28;20469;-71
2022/08/31 07:03:42;;;;;;;0.70;0.70;;;14.00;99.90;;;;;;4971660;28;20565;-71
2022/08/31 07:06:11;;;;;;;0.40;0.40;;;14.20;99.90;;;;;;4971537;28;20529;-71
2022/08/31 07:08:41;;;;;;;0.37;0.37;;;14.30;99.90;;;;;;4971074;28;20471;-71
2022/08/31 07:11:12;;;;;;;0.30;0.30;;;14.40;99.90;;;;;;4971296;28;20562;-71
2022/08/31 07:13:40;;;;;;;0.43;0.43;;;14.50;99.90;;;;;;4971640;28;20534;-71
2022/08/31 07:16:09;;;;;;;0.60;0.50;;;14.70;99.90;;;;;;4971146;28;20975;-71
2022/08/31 07:18:35;;;;;;;0.40;0.40;;;14.80;99.90;;;;;;4971491;28;20963;-71
2022/08/31 07:21:11;;;;;;;0.30;0.30;;;15.00;99.90;;;;;;4970195;28;20474;-71
2022/08/31 07:23:40;;;;;;;0.30;0.30;;;15.20;99.90;;;;;;4971483;28;20463;-71
2022/08/31 07:26:08;;;;;;;0.70;0.43;;;15.30;99.90;;;;;;4971102;28;20478;-71
2022/08/31 07:28:37;;;;;;;0.40;0.40;;;15.30;99.90;;;;;;4971715;28;20477;-71
2022/08/31 07:31:05;;;;;;;0.60;0.50;;;15.50;99.90;;;;;;4971474;28;20471;-71
2022/08/31 07:33:37;;;;;;;0.30;0.30;;;15.60;99.90;;;;;;4970065;28;20482;-71
2022/08/31 07:36:05;;;;;;;0.30;0.30;;;15.60;99.90;;;;;;4955922;28;20455;-71
2022/08/31 07:44:02;;;;;;;0.20;0.20;;;15.90;99.90;;;;;;4955212;29;20474;-71
2022/08/31 07:46:30;;;;;;;0.20;0.20;;;16.00;99.90;;;;;;4955347;28;20506;-71
2022/08/31 07:48:57;;;;;;;0.50;0.50;;;16.10;99.90;;;;;;4956151;28;20470;-71
2022/08/31 07:51:24;;;;;;;0.30;0.30;;;16.10;99.90;;;;;;4971419;28;20481;-71
2022/08/31 07:53:51;;;;;;;1.43;0.80;;;16.20;99.90;;;;;;4974836;28;20497;-71
2022/08/31 07:56:22;;;;;;;0.30;0.30;;;16.20;99.90;;;;;;4974909;28;20642;-71
2022/08/31 07:58:49;;;;;;;1.37;0.90;;;16.30;99.90;;;;;;4974781;28;20465;-71
2022/08/31 08:01:16;;;;;;;0.20;0.20;;;16.40;99.90;;;;;;4974515;28;20474;-71
2022/08/31 08:03:43;;;;;;;0.30;0.30;;;16.50;99.90;;;;;;4974284;28;20479;-71
2022/08/31 08:06:13;;;;;;;0.40;0.40;;;16.60;99.90;;;;;;4973560;28;20495;-71
2022/08/31 08:08:41;;;;;;;0.40;0.40;;;16.60;99.90;;;;;;4965097;28;20901;-71
2022/08/31 08:11:08;;;;;;;0.40;0.40;;;16.70;99.90;;;;;;4973562;28;20526;-71
2022/08/31 08:13:36;;;;;;;0.30;0.30;;;16.90;99.90;;;;;;4966231;28;20958;-71
2022/08/31 08:16:03;;;;;;;0.40;0.40;;;16.90;99.90;;;;;;4974286;28;20463;-71
2022/08/31 08:18:30;;;;;;;0.60;0.60;;;17.00;99.90;;;;;;4974197;28;20468;-71
2022/08/31 08:20:57;;;;;;;0.30;0.30;;;17.20;99.90;;;;;;4974351;28;20465;-71
2022/08/31 08:23:23;;;;;;;0.83;0.40;;;17.30;99.90;;;;;;4973709;28;20461;-71
2022/08/31 08:25:50;;;;;;;0.20;0.20;;;17.50;99.90;;;;;;4965582;28;20497;-71
2022/08/31 08:28:18;;;;;;;0.20;0.20;;;17.60;99.90;;;;;;4974196;28;20467;-71
2022/08/31 08:30:49;;;;;;;0.30;0.20;;;17.70;99.90;;;;;;4973915;28;20462;-71
2022/08/31 08:33:16;;;;;;;0.23;0.23;;;17.70;99.90;;;;;;4973898;28;20504;-71
2022/08/31 08:35:43;;;;;;;0.37;0.37;;;17.80;99.90;;;;;;4973925;28;20820;-71
2022/08/31 08:38:10;;;;;;;0.37;0.37;;;17.90;99.90;;;;;;4974090;28;21021;-71
2022/08/31 08:40:41;;;;;;;0.30;0.30;;;18.00;99.90;;;;;;4972955;28;20476;-71
2022/08/31 08:43:10;;;;;;;0.40;0.40;;;18.10;99.90;;;;;;4973342;28;20477;-71
2022/08/31 08:45:37;;;;;;;0.40;0.40;;;18.20;99.90;;;;;;4972225;28;20490;-71
2022/08/31 08:48:10;;;;;;;0.40;0.40;;;18.20;99.90;;;;;;4973953;28;20467;-71
2022/08/31 08:50:39;;;;;;;0.50;0.40;;;18.20;99.90;;;;;;4974216;28;20531;-71
2022/08/31 08:53:09;;;;;;;0.40;0.40;;;18.30;99.90;;;;;;4974685;28;20462;-71
2022/08/31 08:55:38;;;;;;;0.20;0.20;;;18.40;99.90;;;;;;4973820;28;20501;-71
2022/08/31 08:58:06;;;;;;;0.43;0.43;;;18.60;99.90;;;;;;4975301;28;20472;-71
2022/08/31 09:00:34;;;;;;;1.10;0.80;;;18.80;99.90;;;;;;4976373;28;20490;-71
2022/08/31 09:03:06;;;;;;;0.20;0.20;;;19.00;99.90;;;;;;4973662;28;20471;-71
2022/08/31 09:05:58;;;;;;;0.23;0.23;;;19.00;99.90;;;;;;4973271;28;20506;-71
2022/08/31 09:08:57;;;;;;;0.30;0.30;;;19.00;99.90;;;;;;4973510;28;20858;-71
2022/08/31 09:11:34;;;;;;;0.20;0.20;;;19.00;99.90;;;;;;4973459;28;20462;-71
2022/08/31 09:14:17;;;;;;;0.20;0.20;;;19.20;99.90;;;;;;4971383;28;20842;-71
2022/08/31 09:16:50;;;;;;;0.40;0.40;;;19.20;99.90;;;;;;4964254;28;20549;-71
2022/08/31 09:19:19;;;;;;;4.90;0.40;;;19.20;99.90;;;;;;4973481;28;20820;-71
2022/08/31 09:21:49;;;;;;;0.50;0.50;;;19.10;99.90;;;;;;4973033;28;20470;-71
2022/08/31 09:24:19;;;;;;;0.20;0.20;;;19.10;99.90;;;;;;4973158;28;20991;-71
2022/08/31 09:26:54;;;;;;;0.30;0.30;;;19.10;99.90;;;;;;4972966;28;20918;-71
2022/08/31 09:29:23;;;;;;;0.40;0.40;;;19.10;99.90;;;;;;4972723;28;20954;-71
2022/08/31 09:32:02;;;;;;;0.30;0.30;;;19.00;99.90;;;;;;4973058;28;20866;-71
2022/08/31 09:34:36;;;;;;;0.30;0.30;;;19.00;99.90;;;;;;4970723;28;21082;-71
2022/08/31 09:37:21;;;;;;;0.40;0.40;;;19.00;99.90;;;;;;4954080;28;20461;-71
2022/08/31 09:39:49;;;;;;;0.50;0.50;;;19.00;99.90;;;;;;4953593;28;20467;-71
2022/08/31 09:42:29;;;;;;;0.20;0.20;;;19.00;99.90;;;;;;4961669;28;20475;-71
2022/08/31 09:44:59;;;;;;;0.20;0.20;;;19.20;99.90;;;;;;4953980;28;20503;-71
2022/08/31 09:47:47;;;;;;;0.30;0.30;;;19.30;99.90;;;;;;4953926;28;20563;-71
2022/08/31 09:50:34;;;;;;;0.30;0.30;;;19.70;99.90;;;;;;4953732;28;20860;-71
2022/08/31 09:56:15;;;;;;;0.30;0.30;;;20.10;99.90;;;;;;4941415;28;20549;-71
2022/08/31 09:58:43;;;;;;;0.30;0.30;;;20.20;99.90;;;;;;4960909;28;20465;-71
2022/08/31 10:01:16;;;;;;;0.20;0.20;;;20.20;99.90;;;;;;4968370;28;20456;-71
2022/08/31 10:03:44;;;;;;;0.83;0.40;;;20.20;99.90;;;;;;4972347;28;20561;-71
2022/08/31 10:06:42;;;;;;;0.20;0.20;;;20.20;99.90;;;;;;4972267;28;20523;-71
2022/08/31 10:09:17;;;;;;;0.30;0.30;;;20.10;99.90;;;;;;4966544;28;20790;-70
2022/08/31 10:11:47;;;;;;;0.30;0.30;;;20.00;99.90;;;;;;4953336;29;20455;-71
2022/08/31 10:14:23;;;;;;;0.20;0.20;;;19.90;99.90;;;;;;4980937;23;20515;-70
2022/08/31 10:16:54;;;;;;;0.33;0.33;;;19.90;99.90;;;;;;4971409;28;20477;-73
2022/08/31 10:19:29;;;;;;;0.20;0.20;;;20.00;99.90;;;;;;4969769;28;20482;-72
2022/08/31 10:22:02;;;;;;;0.20;0.20;;;20.20;99.90;;;;;;4965651;28;20541;-72
2022/08/31 10:24:36;;;;;;;0.20;0.20;;;20.10;99.90;;;;;;4972090;28;20863;-75
2022/08/31 10:27:08;;;;;;;0.50;0.50;;;20.10;99.90;;;;;;4972491;28;20467;-75
2022/08/31 10:29:41;;;;;;;0.40;0.30;;;20.00;99.90;;;;;;4972248;28;20502;-74
2022/08/31 10:32:22;;;;;;;0.27;0.27;;;19.90;99.90;;;;;;4966055;28;20566;-74
2022/08/31 10:35:04;;;;;;;0.33;0.33;;;19.90;99.90;;;;;;4954326;28;20488;-74
2022/08/31 10:37:42;;;;;;;0.20;0.20;;;19.90;99.90;;;;;;4952768;28;20468;-75
2022/08/31 10:40:14;;;;;;;0.20;0.20;;;20.00;99.90;;;;;;4952714;28;20474;-75
2022/08/31 10:42:47;;;;;;;0.20;0.20;;;20.10;99.90;;;;;;4952774;28;20472;-75
2022/08/31 10:45:17;;;;;;;5.27;0.90;;;20.20;99.90;;;;;;4951338;28;21073;-75
2022/08/31 10:47:47;;;;;;;0.30;0.30;;;20.30;99.90;;;;;;4958999;28;20479;-75
2022/08/31 10:50:19;;;;;;;0.20;0.20;;;20.40;99.90;;;;;;4963764;28;20507;-75
2022/08/31 10:53:01;;;;;;;0.20;0.20;;;20.50;99.90;;;;;;4957490;28;20606;-74
2022/08/31 10:55:36;;;;;;;0.20;0.20;;;20.50;99.90;;;;;;4982554;28;20475;-75
2022/08/31 10:58:16;;;;;;;0.40;0.40;;;20.50;99.90;;;;;;4983471;28;20471;-75
2022/08/31 11:00:51;;;;;;;0.30;0.30;;;20.70;99.90;;;;;;4976448;28;20475;-75
2022/08/31 11:03:35;;;;;;;0.50;0.50;;;20.80;99.90;;;;;;4972709;28;20468;-75
2022/08/31 11:06:11;;;;;;;0.20;0.20;;;21.00;99.90;;;;;;4968704;28;20496;-75
2022/08/31 11:08:48;;;;;;;3.17;0.30;;;21.10;99.90;;;;;;4976122;28;20467;-75
2022/08/31 11:11:25;;;;;;;0.40;0.40;;;21.20;99.90;;;;;;4978276;28;20948;-75
2022/08/31 11:14:17;;;;;;;0.27;0.27;;;21.20;99.90;;;;;;4973794;28;20469;-74
2022/08/31 11:17:05;;;;;;;0.20;0.20;;;21.20;99.90;;;;;;4956326;28;20461;-75
2022/08/31 11:19:49;;;;;;;0.20;0.20;;;21.30;99.90;;;;;;4956496;28;20469;-75
2022/08/31 11:22:46;;;;;;;0.20;0.20;;;21.20;99.90;;;;;;4956157;28;20501;-75
2022/08/31 11:25:30;;;;;;;1.50;0.40;;;21.20;99.90;;;;;;4955995;28;20849;-75
2022/08/31 11:28:04;;;;;;;0.30;0.30;;;21.40;99.90;;;;;;4954245;28;20475;-74
2022/08/31 11:30:33;;;;;;;0.30;0.30;;;21.60;99.90;;;;;;4962190;28;20580;-75
2022/08/31 11:33:06;;;;;;;1.70;0.47;;;21.70;99.90;;;;;;4970054;28;20559;-74
2022/08/31 11:35:59;;;;;;;0.30;0.30;;;21.70;99.90;;;;;;4951524;28;20985;-75
2022/08/31 11:38:48;;;;;;;0.20;0.20;;;21.90;99.90;;;;;;4955619;28;20952;-75
2022/08/31 11:41:40;;;;;;;0.27;0.27;;;22.10;99.90;;;;;;4955956;28;20465;-75
2022/08/31 11:44:08;;;;;;;0.50;0.20;;;22.30;99.90;;;;;;4960427;28;20469;-75
2022/08/31 11:46:44;;;;;;;0.20;0.20;;;22.30;99.90;;;;;;4955397;28;20513;-76
2022/08/31 11:49:42;;;;;;;0.30;0.30;;;22.30;99.90;;;;;;4956085;28;20590;-75
2022/08/31 11:52:24;;;;;;;0.30;0.30;;;22.30;99.90;;;;;;4955383;28;20576;-75
2022/08/31 11:55:05;;;;;;;0.40;0.40;;;22.40;99.90;;;;;;4955397;28;20496;-76
2022/08/31 11:57:58;;;;;;;0.20;0.20;;;22.40;99.90;;;;;;4960051;28;20512;-75
2022/08/31 12:00:43;;;;;;;0.20;0.20;;;22.30;99.90;;;;;;4972384;28;20469;-75
2022/08/31 12:03:10;;;;;;;0.40;0.40;;;22.10;99.90;;;;;;4974335;28;20473;-75
2022/08/31 12:05:55;;;;;;;1.23;0.30;;;22.20;99.90;;;;;;4970798;28;20498;-75
2022/08/31 12:08:24;;;;;;;0.40;0.40;;;22.30;99.90;;;;;;4952545;28;20469;-75
2022/08/31 12:10:57;;;;;;;0.20;0.20;;;22.40;99.90;;;;;;4951832;28;20478;-75
2022/08/31 12:13:37;;;;;;;0.37;0.37;;;22.50;99.90;;;;;;4964238;28;20835;-75
2022/08/31 12:16:26;;;;;;;0.20;0.20;;;22.50;99.90;;;;;;4973915;28;20489;-75
2022/08/31 12:25:13;;;;;;;0.30;0.30;;;22.60;99.90;;;;;;4962528;28;20484;-74
2022/08/31 12:27:49;;;;;;;0.30;0.30;;;22.80;99.90;;;;;;4935642;29;20463;-74
2022/08/31 12:30:19;;;;;;;0.30;0.30;;;22.90;99.90;;;;;;4935103;28;20472;-74
2022/08/31 12:32:58;;;;;;;0.30;0.30;;;23.10;99.90;;;;;;4955605;28;20459;-74
2022/08/31 12:35:26;;;;;;;0.20;0.20;;;23.10;99.50;;;;;;4954998;28;20524;-74
2022/08/31 12:38:01;;;;;;;0.30;0.30;;;23.00;99.80;;;;;;4956150;28;20557;-74
2022/08/31 12:40:30;;;;;;;0.37;0.37;;;22.80;99.90;;;;;;4962685;28;20934;-74
2022/08/31 12:43:08;;;;;;;1.10;1.10;;;22.50;99.90;;;;;;4967910;28;20473;-74
2022/08/31 12:46:02;;;;;;;1.23;0.40;;;22.30;99.80;;;;;;4973638;28;20509;-74
2022/08/31 12:48:49;;;;;;;0.30;0.30;;;22.10;99.70;;;;;;4973916;28;20518;-74
2022/08/31 12:51:26;;;;;;;0.53;0.30;;;21.90;99.90;;;;;;4968601;28;20949;-74
2022/08/31 12:54:15;;;;;;;0.30;0.30;;;21.90;99.90;;;;;;4965668;28;20464;-75
2022/08/31 12:56:52;;;;;;;0.77;0.30;;;21.80;99.80;;;;;;4952570;28;20485;-74
2022/08/31 12:59:31;;;;;;;0.20;0.20;;;21.80;99.60;;;;;;4954542;28;20476;-75
2022/08/31 13:01:59;;;;;;;1.60;0.30;;;21.90;99.10;;;;;;4953773;28;20481;-74
2022/08/31 13:04:28;;;;;;;0.37;0.37;;;22.00;99.40;;;;;;4954457;28;20469;-74
2022/08/31 13:06:55;;;;;;;0.20;0.20;;;22.00;99.90;;;;;;4959850;28;20571;-74
2022/08/31 13:09:26;;;;;;;0.30;0.30;;;21.90;99.90;;;;;;4971086;28;20803;-74
2022/08/31 13:11:55;;;;;;;0.30;0.30;;;21.90;99.90;;;;;;4973402;28;20485;-74
2022/08/31 13:14:25;;;;;;;0.30;0.30;;;21.90;99.90;;;;;;4973262;28;20468;-74
2022/08/31 13:16:53;;;;;;;0.20;0.20;;;21.80;99.90;;;;;;4973355;28;20465;-74
2022/08/31 13:19:25;;;;;;;0.30;0.30;;;21.80;99.90;;;;;;4970270;28;20474;-74
2022/08/31 13:21:56;;;;;;;0.30;0.30;;;21.80;99.90;;;;;;4963202;28;20473;-75
2022/08/31 13:24:27;;;;;;;0.30;0.30;;;21.70;99.90;;;;;;4964963;28;20461;-75
2022/08/31 13:27:07;;;;;;;0.30;0.30;;;21.80;99.90;;;;;;4972744;28;20485;-75
2022/08/31 13:29:39;;;;;;;0.40;0.33;;;21.80;99.90;;;;;;4973454;28;20470;-75
2022/08/31 13:32:07;;;;;;;1.10;0.30;;;21.80;98.60;;;;;;4972076;28;20509;-75
2022/08/31 13:34:40;;;;;;;0.30;0.30;;;21.90;98.10;;;;;;4955622;28;20502;-75
2022/08/31 13:37:11;;;;;;;0.47;0.47;;;22.00;97.60;;;;;;4958462;28;20497;-74
2022/08/31 13:39:43;;;;;;;0.20;0.20;;;21.90;97.60;;;;;;4972964;28;20468;-75
2022/08/31 13:42:21;;;;;;;0.37;0.37;;;22.00;97.20;;;;;;4973049;28;20520;-75
2022/08/31 13:44:53;;;;;;;0.40;0.40;;;21.90;97.30;;;;;;4972914;28;20533;-75
2022/08/31 13:47:24;;;;;;;0.30;0.30;;;21.80;97.00;;;;;;4972310;28;20489;-75
2022/08/31 13:49:57;;;;;;;0.30;0.30;;;21.70;97.50;;;;;;4968480;28;20470;-75
2022/08/31 13:52:27;;;;;;;0.30;0.30;;;21.70;97.20;;;;;;4965098;28;20464;-75
2022/08/31 13:55:00;;;;;;;0.30;0.30;;;21.70;97.50;;;;;;4972640;28;20492;-76
2022/08/31 13:57:28;;;;;;;0.77;0.23;;;21.80;97.80;;;;;;4973025;28;20520;-76
2022/08/31 13:59:56;;;;;;;0.20;0.20;;;21.80;97.80;;;;;;4972604;28;20477;-76
2022/08/31 14:02:32;;;;;;;0.20;0.20;;;21.90;98.30;;;;;;4956407;28;20965;-75
2022/08/31 14:05:02;;;;;;;0.20;0.20;;;22.10;98.20;;;;;;4967342;28;20485;-76
2022/08/31 14:07:49;;;;;;;0.67;0.20;;;22.30;98.50;;;;;;4972358;28;20493;-75
2022/08/31 14:10:20;;;;;;;0.30;0.30;;;22.40;98.10;;;;;;4972957;28;20441;-74
2022/08/31 14:12:50;;;;;;;0.20;0.20;;;22.40;98.40;;;;;;4972700;28;20497;-75
2022/08/31 14:15:34;;;;;;;0.20;0.20;;;22.30;98.50;;;;;;4963276;28;21347;-75
2022/08/31 14:18:16;;;;;;;0.30;0.30;;;22.20;98.50;;;;;;4964567;28;20454;-75
2022/08/31 14:20:46;;;;;;;0.30;0.30;;;22.10;98.90;;;;;;4969879;28;20474;-75
2022/08/31 14:23:33;;;;;;;0.20;0.20;;;22.10;98.80;;;;;;4966188;28;20475;-75
2022/08/31 14:26:03;;;;;;;0.20;0.20;;;22.20;98.10;;;;;;4947509;29;20654;-75
2022/08/31 14:28:40;;;;;;;0.20;0.20;;;22.10;97.40;;;;;;4951942;28;20840;-75
2022/08/31 14:31:21;;;;;;;0.20;0.20;;;22.00;97.70;;;;;;4956278;28;20499;-74
2022/08/31 14:33:54;;;;;;;0.33;0.33;;;21.90;96.40;;;;;;4934162;29;20507;-75
2022/08/31 14:36:23;;;;;;;0.27;0.27;;;21.90;96.50;;;;;;4933530;29;21166;-75
2022/08/31 14:38:53;;;;;;;0.20;0.20;;;21.90;96.30;;;;;;4933674;29;20565;-75
2022/08/31 14:41:29;;;;;;;0.30;0.30;;;21.90;96.40;;;;;;4933903;29;20494;-75
2022/08/31 14:44:05;;;;;;;0.20;0.20;;;22.00;96.50;;;;;;4943288;28;20495;-74
2022/08/31 14:46:33;;;;;;;0.57;0.40;;;22.20;96.00;;;;;;4963555;28;20490;-73
2022/08/31 14:49:00;;;;;;;0.47;0.47;;;22.20;95.80;;;;;;4972419;28;20576;-74
2022/08/31 14:51:27;;;;;;;0.20;0.20;;;22.30;95.80;;;;;;4971700;28;20473;-74
2022/08/31 14:53:56;;;;;;;0.73;0.40;;;22.30;95.10;;;;;;4971706;28;20477;-74
2022/08/31 14:56:31;;;;;;;0.23;0.23;;;22.40;95.80;;;;;;4953383;28;20573;-73
2022/08/31 14:59:02;;;;;;;0.30;0.30;;;22.40;94.50;;;;;;4953106;28;20466;-74
2022/08/31 15:01:32;;;;;;;0.40;0.40;;;22.30;94.40;;;;;;4953867;28;20459;-76
2022/08/31 15:04:02;;;;;;;0.80;0.20;;;22.20;94.40;;;;;;4952376;28;20950;-75
2022/08/31 15:06:30;;;;;;;0.33;0.33;;;22.20;94.60;;;;;;4952100;28;20858;-74
2022/08/31 15:09:03;;;;;;;0.20;0.20;;;22.10;94.70;;;;;;4952319;28;20469;-74
2022/08/31 15:11:36;;;;;;;0.20;0.20;;;22.10;94.40;;;;;;4952462;28;20836;-75
2022/08/31 15:14:04;;;;;;;0.20;0.20;;;22.10;94.90;;;;;;4950681;28;20477;-75
2022/08/31 15:16:31;;;;;;;0.30;0.30;;;22.10;94.00;;;;;;4952094;28;20506;-75
2022/08/31 15:19:00;;;;;;;0.40;0.40;;;22.10;94.20;;;;;;4952719;28;20462;-75
2022/08/31 15:21:26;;;;;;;0.30;0.23;;;22.30;94.70;;;;;;4937666;28;20474;-75
2022/08/31 15:23:53;;;;;;;0.30;0.30;;;22.40;94.00;;;;;;4955466;28;20466;-75
2022/08/31 15:26:21;;;;;;;0.20;0.20;;;22.60;94.60;;;;;;4939063;28;20829;-75
2022/08/31 15:28:51;;;;;;;0.30;0.30;;;22.70;95.80;;;;;;4959088;28;20882;-75
2022/08/31 15:31:24;;;;;;;0.40;0.40;;;22.70;96.40;;;;;;4951809;28;20502;-75
2022/08/31 15:33:54;;;;;;;0.20;0.20;;;22.60;96.30;;;;;;4952465;28;20731;-76
2022/08/31 15:36:23;;;;;;;0.60;0.60;;;22.60;96.50;;;;;;4952882;28;20505;-76
2022/08/31 15:38:52;;;;;;;0.30;0.30;;;22.50;96.00;;;;;;4952911;28;20468;-76
2022/08/31 15:41:21;;;;;;;0.20;0.20;;;22.40;96.40;;;;;;4952104;28;20638;-75
2022/08/31 15:43:50;;;;;;;0.27;0.20;;;22.10;96.70;;;;;;4964802;28;20981;-76
2022/08/31 15:48:40;;;;;;;0.20;0.20;;;22.00;96.70;;;;;;4969609;28;20492;-75
2022/08/31 15:49:04;;;;;;;0.30;0.30;;;21.90;97.00;;;;;;4952286;29;20978;-75
2022/08/31 15:51:33;;;;;;;0.53;0.53;;;21.80;96.90;;;;;;4952244;28;20469;-75
2022/08/31 15:54:02;;;;;;;0.20;0.20;;;21.70;97.00;;;;;;4946238;28;20519;-75
2022/08/31 15:56:32;;;;;;;0.20;0.20;;;21.60;97.00;;;;;;4963788;28;20489;-75
2022/08/31 15:58:59;;;;;;;0.30;0.30;;;21.50;97.20;;;;;;4974792;28;20897;-75
2022/08/31 16:01:26;;;;;;;0.40;0.40;;;21.40;97.50;;;;;;4961824;28;20553;-74
2022/08/31 16:03:55;;;;;;;0.30;0.30;;;21.30;97.80;;;;;;4968609;28;20478;-74
2022/08/31 16:06:26;;;;;;;0.40;0.40;;;21.20;98.00;;;;;;4974248;28;20583;-74
2022/08/31 16:08:54;;;;;;;0.20;0.20;;;21.10;98.10;;;;;;4974767;28;20478;-74
2022/08/31 16:11:23;;;;;;;0.37;0.37;;;21.10;98.30;;;;;;4974529;28;20481;-75
2022/08/31 16:13:57;;;;;;;0.40;0.40;;;21.00;98.40;;;;;;4959858;28;20565;-76
2022/08/31 16:16:25;;;;;;;0.23;0.23;;;21.00;98.50;;;;;;4956782;28;20982;-75
2022/08/31 16:18:55;;;;;;;0.30;0.30;;;21.00;98.30;;;;;;4965329;28;20476;-75
2022/08/31 16:21:24;;;;;;;0.30;0.30;;;21.10;98.50;;;;;;4956559;28;20582;-75
2022/08/31 16:23:58;;;;;;;0.47;0.37;;;21.20;98.80;;;;;;4961039;28;20479;-75
2022/08/31 16:26:26;;;;;;;0.30;0.30;;;21.30;98.40;;;;;;4973928;28;20480;-75
2022/08/31 16:28:54;;;;;;;0.30;0.30;;;21.30;98.90;;;;;;4965849;28;20479;-75
2022/08/31 16:31:22;;;;;;;0.27;0.27;;;21.40;99.40;;;;;;4965783;28;20962;-75
2022/08/31 16:33:48;;;;;;;0.20;0.20;;;21.40;99.70;;;;;;4974207;28;20480;-75
2022/08/31 16:36:17;;;;;;;0.30;0.30;;;21.50;99.90;;;;;;4973550;28;21017;-75
2022/08/31 16:38:45;;;;;;;0.20;0.20;;;21.50;99.90;;;;;;4974042;28;20499;-75
2022/08/31 16:41:13;;;;;;;0.20;0.20;;;21.60;99.90;;;;;;4973965;28;20521;-75
2022/08/31 16:43:40;;;;;;;0.30;0.30;;;21.60;99.90;;;;;;4963676;28;20477;-76
2022/08/31 16:46:10;;;;;;;0.50;0.50;;;21.60;99.90;;;;;;4969166;28;20495;-76
2022/08/31 16:51:23;;;;;;;0.20;0.20;;;21.60;99.90;;;;;;4973690;28;20555;-75
2022/08/31 16:53:51;;;;;;;0.20;0.20;;;21.60;98.80;;;;;;4973957;28;20969;-76
2022/08/31 16:56:19;;;;;;;0.20;0.20;;;21.50;98.70;;;;;;4967283;28;20600;-76
2022/08/31 16:58:46;;;;;;;0.20;0.20;;;21.50;99.00;;;;;;4966196;28;20461;-75
2022/08/31 17:01:17;;;;;;;0.20;0.20;;;21.50;98.80;;;;;;4973039;28;20468;-76
2022/08/31 17:03:46;;;;;;;0.30;0.30;;;21.50;98.90;;;;;;4973875;28;20475;-76
2022/08/31 17:06:13;;;;;;;0.23;0.23;;;21.50;98.60;;;;;;4972246;28;21012;-75
2022/08/31 17:08:44;;;;;;;0.30;0.30;;;21.40;98.80;;;;;;4973554;28;20500;-76
2022/08/31 17:11:19;;;;;;;0.20;0.20;;;21.30;98.90;;;;;;4968943;28;20473;-74
2022/08/31 17:13:48;;;;;;;0.40;0.30;;;21.30;99.00;;;;;;4959182;28;20466;-75
2022/08/31 17:16:19;;;;;;;0.30;0.30;;;21.20;99.70;;;;;;4972975;28;20492;-74
2022/08/31 17:18:49;;;;;;;0.20;0.20;;;21.20;99.90;;;;;;4973823;28;20491;-75
2022/08/31 17:21:16;;;;;;;0.20;0.20;;;21.10;99.90;;;;;;4973837;28;20470;-75
2022/08/31 17:23:46;;;;;;;0.30;0.30;;;21.10;99.90;;;;;;4975386;28;20471;-75
2022/08/31 17:26:13;;;;;;;0.30;0.30;;;21.00;99.90;;;;;;4961206;28;20899;-76
2022/08/31 17:28:40;;;;;;;0.20;0.20;;;20.90;99.90;;;;;;4934706;29;20583;-75
2022/08/31 17:31:07;;;;;;;0.30;0.30;;;20.80;99.90;;;;;;4934266;29;20506;-76